Denver, CO

12:09 PM MST on December 02, 2016 (GMT -0700)
Alamo Placita | | Change Station

Elev 5299 ft 39.72 °N, 104.98 °W | Updated 17 seconds ago

Overcast
Overcast
34.5 °F
Feels Like 34 °F
N
0.9
Wind Variable Wind from SSE
Gusts 2.5 mph

Today
High -- | Low -- °F
--% Chance of Precip.
Yesterday
High -- | Low -- °F
Precip. -- in
Pressure 30.23 in
Visibility 10.0 miles
Clouds Overcast 5000 ft
Windchill 34 °F
Dew Point 17 °F
Humidity 49%
Rainfall 0.00 in
Snow Depth Not available.
7:03 AM 4:35 PM
Waxing Crescent, 10% visible
METAR KBKF 021858Z 13010KT 10SM OVC050 00/M08 A3018 RMK AO2A SLP237 T00021078
Pressure 30.23 in
Visibility 10.0 miles
Clouds Overcast 5000 ft
Windchill 34 °F
Dew Point 17 °F
Humidity 49%
Rainfall 0.00 in
Snow Depth Not available.
7:03 AM 4:35 PM
Waxing Crescent, 10% visible
METAR KBKF 021858Z 13010KT 10SM OVC050 00/M08 A3018 RMK AO2A SLP237 T00021078

10-Day Weather Forecast

Almanac

Astronomy

Dec. 02, 2016 Rise Set
Actual Time
Civil Twilight
Nautical Twilight
Astronomical Twilight
Moon
Length of Visible Light
Length of Day
Tomorrow will be .
, % of the Moon is Illuminated

Today's Extremes

State Highs State Lows

Community

WunderPhotos

Upload Photos

1,955,343 photos uploaded!

WunderBlog® & News

Nearby

Air Quality

  Air Quality AQ Index Pollutant
Not available.

Snow Depth

Station Depth Elevation

Earthquake Activity

City Distance Mag. Time & Date
Minimum magnitude displayed is 2.5.

Coastal Water Temperatures

Place Temperature

Stations

Nearby Weather Stations

Station Location Temp. Windchill Dew Point Humidity Wind Precip. Elev Updated Type
                   

Watches & Warnings

There are currently no watches in effect.